sensor_id;sensor_type;location;lat;lon;timestamp;P1;durP1;ratioP1;P2;durP2;ratioP2
23378;SDS011;11862;46.070;13.222;2022-10-26T00:00:35;4.40;;;2.25;;
23378;SDS011;11862;46.070;13.222;2022-10-26T00:03:00;4.93;;;2.15;;
23378;SDS011;11862;46.070;13.222;2022-10-26T00:05:26;3.30;;;1.95;;
23378;SDS011;11862;46.070;13.222;2022-10-26T00:07:52;4.63;;;2.00;;
23378;SDS011;11862;46.070;13.222;2022-10-26T00:10:18;2.88;;;2.30;;
23378;SDS011;11862;46.070;13.222;2022-10-26T00:12:47;4.22;;;2.13;;
23378;SDS011;11862;46.070;13.222;2022-10-26T00:15:14;4.03;;;1.98;;
23378;SDS011;11862;46.070;13.222;2022-10-26T00:17:41;6.30;;;2.50;;
23378;SDS011;11862;46.070;13.222;2022-10-26T00:20:07;5.65;;;1.88;;
23378;SDS011;11862;46.070;13.222;2022-10-26T00:22:33;5.65;;;2.17;;
23378;SDS011;11862;46.070;13.222;2022-10-26T00:24:59;4.15;;;1.95;;
23378;SDS011;11862;46.070;13.222;2022-10-26T00:27:24;2.28;;;1.80;;
23378;SDS011;11862;46.070;13.222;2022-10-26T00:29:50;3.78;;;2.08;;
23378;SDS011;11862;46.070;13.222;2022-10-26T00:32:16;3.70;;;1.83;;
23378;SDS011;11862;46.070;13.222;2022-10-26T00:34:42;3.10;;;2.03;;
23378;SDS011;11862;46.070;13.222;2022-10-26T00:37:08;4.65;;;2.42;;
23378;SDS011;11862;46.070;13.222;2022-10-26T00:39:33;3.40;;;2.05;;
23378;SDS011;11862;46.070;13.222;2022-10-26T00:41:59;3.03;;;1.70;;
23378;SDS011;11862;46.070;13.222;2022-10-26T00:47:08;3.22;;;1.88;;
23378;SDS011;11862;46.070;13.222;2022-10-26T00:49:36;5.60;;;1.92;;
23378;SDS011;11862;46.070;13.222;2022-10-26T00:52:02;2.67;;;1.70;;
23378;SDS011;11862;46.070;13.222;2022-10-26T00:54:29;3.85;;;1.77;;
23378;SDS011;11862;46.070;13.222;2022-10-26T00:56:55;2.83;;;1.70;;
23378;SDS011;11862;46.070;13.222;2022-10-26T00:59:20;2.58;;;1.77;;
23378;SDS011;11862;46.070;13.222;2022-10-26T01:01:47;3.45;;;2.13;;
23378;SDS011;11862;46.070;13.222;2022-10-26T01:04:14;4.90;;;1.80;;
23378;SDS011;11862;46.070;13.222;2022-10-26T01:06:42;2.90;;;1.40;;
23378;SDS011;11862;46.070;13.222;2022-10-26T01:09:08;3.40;;;1.50;;
23378;SDS011;11862;46.070;13.222;2022-10-26T01:11:35;3.38;;;1.35;;
23378;SDS011;11862;46.070;13.222;2022-10-26T01:14:03;2.50;;;1.60;;
23378;SDS011;11862;46.070;13.222;2022-10-26T01:16:54;3.25;;;1.40;;
23378;SDS011;11862;46.070;13.222;2022-10-26T01:21:52;9.30;;;1.63;;
23378;SDS011;11862;46.070;13.222;2022-10-26T01:35:27;2.17;;;1.60;;
23378;SDS011;11862;46.070;13.222;2022-10-26T01:38:12;3.88;;;2.17;;
23378;SDS011;11862;46.070;13.222;2022-10-26T01:41:10;3.65;;;1.38;;
23378;SDS011;11862;46.070;13.222;2022-10-26T01:43:35;2.35;;;1.60;;
23378;SDS011;11862;46.070;13.222;2022-10-26T01:46:06;6.97;;;1.50;;
23378;SDS011;11862;46.070;13.222;2022-10-26T01:48:33;3.58;;;1.30;;
23378;SDS011;11862;46.070;13.222;2022-10-26T01:51:01;2.05;;;1.50;;
23378;SDS011;11862;46.070;13.222;2022-10-26T01:53:28;6.13;;;1.67;;
23378;SDS011;11862;46.070;13.222;2022-10-26T01:55:55;3.40;;;1.40;;
23378;SDS011;11862;46.070;13.222;2022-10-26T02:01:28;7.78;;;1.67;;
23378;SDS011;11862;46.070;13.222;2022-10-26T02:11:47;4.15;;;1.60;;
23378;SDS011;11862;46.070;13.222;2022-10-26T02:14:17;9.57;;;1.52;;
23378;SDS011;11862;46.070;13.222;2022-10-26T02:17:22;3.15;;;1.70;;
23378;SDS011;11862;46.070;13.222;2022-10-26T02:22:29;4.43;;;1.40;;
23378;SDS011;11862;46.070;13.222;2022-10-26T02:25:04;3.35;;;1.60;;
23378;SDS011;11862;46.070;13.222;2022-10-26T02:27:33;4.60;;;1.40;;
23378;SDS011;11862;46.070;13.222;2022-10-26T02:30:04;3.50;;;1.40;;
23378;SDS011;11862;46.070;13.222;2022-10-26T02:32:32;4.55;;;1.63;;
23378;SDS011;11862;46.070;13.222;2022-10-26T02:35:01;4.25;;;1.33;;
23378;SDS011;11862;46.070;13.222;2022-10-26T02:37:29;1.73;;;1.15;;
23378;SDS011;11862;46.070;13.222;2022-10-26T02:39:58;5.30;;;1.50;;
23378;SDS011;11862;46.070;13.222;2022-10-26T02:42:28;4.47;;;1.15;;
23378;SDS011;11862;46.070;13.222;2022-10-26T02:44:54;4.95;;;1.35;;
23378;SDS011;11862;46.070;13.222;2022-10-26T02:47:24;3.75;;;1.50;;
23378;SDS011;11862;46.070;13.222;2022-10-26T02:49:51;2.60;;;1.40;;
23378;SDS011;11862;46.070;13.222;2022-10-26T02:55:13;1.55;;;1.20;;
23378;SDS011;11862;46.070;13.222;2022-10-26T02:57:51;4.70;;;1.85;;
23378;SDS011;11862;46.070;13.222;2022-10-26T03:00:22;4.90;;;1.30;;
23378;SDS011;11862;46.070;13.222;2022-10-26T03:02:52;3.30;;;1.40;;
23378;SDS011;11862;46.070;13.222;2022-10-26T03:05:28;3.95;;;1.52;;
23378;SDS011;11862;46.070;13.222;2022-10-26T03:07:57;3.10;;;1.55;;
23378;SDS011;11862;46.070;13.222;2022-10-26T03:10:23;3.15;;;1.67;;
23378;SDS011;11862;46.070;13.222;2022-10-26T03:12:49;2.65;;;1.50;;
23378;SDS011;11862;46.070;13.222;2022-10-26T03:15:16;3.67;;;1.42;;
23378;SDS011;11862;46.070;13.222;2022-10-26T03:17:42;4.25;;;2.30;;
23378;SDS011;11862;46.070;13.222;2022-10-26T03:20:08;2.55;;;1.40;;
23378;SDS011;11862;46.070;13.222;2022-10-26T03:22:35;3.03;;;1.50;;
23378;SDS011;11862;46.070;13.222;2022-10-26T03:25:01;5.30;;;1.30;;
23378;SDS011;11862;46.070;13.222;2022-10-26T03:27:27;5.43;;;1.30;;
23378;SDS011;11862;46.070;13.222;2022-10-26T03:29:53;4.70;;;1.88;;
23378;SDS011;11862;46.070;13.222;2022-10-26T03:32:18;3.08;;;1.60;;
23378;SDS011;11862;46.070;13.222;2022-10-26T03:34:44;3.72;;;1.25;;
23378;SDS011;11862;46.070;13.222;2022-10-26T03:37:10;2.78;;;1.02;;
23378;SDS011;11862;46.070;13.222;2022-10-26T03:39:36;4.05;;;1.45;;
23378;SDS011;11862;46.070;13.222;2022-10-26T03:42:02;3.90;;;1.40;;
23378;SDS011;11862;46.070;13.222;2022-10-26T03:44:28;2.13;;;1.27;;
23378;SDS011;11862;46.070;13.222;2022-10-26T03:46:54;4.60;;;1.48;;
23378;SDS011;11862;46.070;13.222;2022-10-26T03:49:19;3.53;;;1.17;;
23378;SDS011;11862;46.070;13.222;2022-10-26T03:51:45;2.72;;;1.20;;
23378;SDS011;11862;46.070;13.222;2022-10-26T03:54:11;4.85;;;1.40;;
23378;SDS011;11862;46.070;13.222;2022-10-26T03:56:36;3.53;;;1.33;;
23378;SDS011;11862;46.070;13.222;2022-10-26T03:59:02;2.85;;;1.23;;
23378;SDS011;11862;46.070;13.222;2022-10-26T04:01:28;3.38;;;1.40;;
23378;SDS011;11862;46.070;13.222;2022-10-26T04:03:54;1.25;;;1.15;;
23378;SDS011;11862;46.070;13.222;2022-10-26T04:06:19;1.70;;;1.20;;
23378;SDS011;11862;46.070;13.222;2022-10-26T04:08:45;2.85;;;1.17;;
23378;SDS011;11862;46.070;13.222;2022-10-26T04:11:11;2.92;;;1.42;;
23378;SDS011;11862;46.070;13.222;2022-10-26T04:13:37;3.00;;;1.35;;
23378;SDS011;11862;46.070;13.222;2022-10-26T04:16:04;7.05;;;1.70;;
23378;SDS011;11862;46.070;13.222;2022-10-26T04:18:30;4.10;;;1.20;;
23378;SDS011;11862;46.070;13.222;2022-10-26T04:20:59;2.70;;;1.23;;
23378;SDS011;11862;46.070;13.222;2022-10-26T04:23:26;1.88;;;1.27;;
23378;SDS011;11862;46.070;13.222;2022-10-26T04:25:52;1.60;;;1.10;;
23378;SDS011;11862;46.070;13.222;2022-10-26T04:28:17;4.57;;;1.38;;
23378;SDS011;11862;46.070;13.222;2022-10-26T04:30:43;5.78;;;1.60;;
23378;SDS011;11862;46.070;13.222;2022-10-26T04:33:09;1.33;;;1.08;;
23378;SDS011;11862;46.070;13.222;2022-10-26T04:35:35;5.20;;;1.27;;
23378;SDS011;11862;46.070;13.222;2022-10-26T04:38:02;1.70;;;1.50;;
23378;SDS011;11862;46.070;13.222;2022-10-26T04:40:30;3.30;;;1.38;;
23378;SDS011;11862;46.070;13.222;2022-10-26T04:42:56;3.05;;;1.33;;
23378;SDS011;11862;46.070;13.222;2022-10-26T04:45:22;2.88;;;2.05;;
23378;SDS011;11862;46.070;13.222;2022-10-26T04:47:58;6.22;;;1.45;;
23378;SDS011;11862;46.070;13.222;2022-10-26T04:50:31;3.75;;;1.15;;
23378;SDS011;11862;46.070;13.222;2022-10-26T04:52:58;6.13;;;1.77;;
23378;SDS011;11862;46.070;13.222;2022-10-26T04:55:24;7.82;;;1.60;;
23378;SDS011;11862;46.070;13.222;2022-10-26T04:57:50;2.60;;;1.20;;
23378;SDS011;11862;46.070;13.222;2022-10-26T05:00:16;3.47;;;1.60;;
23378;SDS011;11862;46.070;13.222;2022-10-26T05:02:42;5.30;;;1.80;;
23378;SDS011;11862;46.070;13.222;2022-10-26T05:05:08;4.63;;;1.40;;
23378;SDS011;11862;46.070;13.222;2022-10-26T05:07:33;4.35;;;1.42;;
23378;SDS011;11862;46.070;13.222;2022-10-26T05:09:59;5.07;;;1.50;;
23378;SDS011;11862;46.070;13.222;2022-10-26T05:12:25;3.65;;;1.20;;
23378;SDS011;11862;46.070;13.222;2022-10-26T05:14:51;4.80;;;1.65;;
23378;SDS011;11862;46.070;13.222;2022-10-26T05:17:17;3.55;;;1.38;;
23378;SDS011;11862;46.070;13.222;2022-10-26T05:19:43;3.55;;;2.25;;
23378;SDS011;11862;46.070;13.222;2022-10-26T05:22:09;4.82;;;1.67;;
23378;SDS011;11862;46.070;13.222;2022-10-26T05:24:35;2.75;;;1.33;;
23378;SDS011;11862;46.070;13.222;2022-10-26T05:27:01;4.63;;;1.80;;
23378;SDS011;11862;46.070;13.222;2022-10-26T05:29:26;3.33;;;1.67;;
23378;SDS011;11862;46.070;13.222;2022-10-26T05:31:52;3.90;;;2.00;;
23378;SDS011;11862;46.070;13.222;2022-10-26T05:34:18;5.70;;;1.83;;
23378;SDS011;11862;46.070;13.222;2022-10-26T05:36:44;3.97;;;1.45;;
23378;SDS011;11862;46.070;13.222;2022-10-26T05:39:10;3.83;;;1.35;;
23378;SDS011;11862;46.070;13.222;2022-10-26T05:41:36;4.40;;;1.38;;
23378;SDS011;11862;46.070;13.222;2022-10-26T05:44:03;5.57;;;1.40;;
23378;SDS011;11862;46.070;13.222;2022-10-26T05:46:29;5.80;;;1.50;;
23378;SDS011;11862;46.070;13.222;2022-10-26T05:49:01;5.20;;;2.63;;
23378;SDS011;11862;46.070;13.222;2022-10-26T05:51:28;2.67;;;1.92;;
23378;SDS011;11862;46.070;13.222;2022-10-26T05:54:09;5.25;;;1.85;;
23378;SDS011;11862;46.070;13.222;2022-10-26T05:57:14;7.40;;;2.10;;
23378;SDS011;11862;46.070;13.222;2022-10-26T05:59:47;3.83;;;2.42;;
23378;SDS011;11862;46.070;13.222;2022-10-26T06:05:02;4.38;;;1.40;;
23378;SDS011;11862;46.070;13.222;2022-10-26T06:07:31;2.58;;;1.40;;
23378;SDS011;11862;46.070;13.222;2022-10-26T06:09:58;4.50;;;1.40;;
23378;SDS011;11862;46.070;13.222;2022-10-26T06:12:32;2.53;;;1.30;;
23378;SDS011;11862;46.070;13.222;2022-10-26T06:15:02;3.58;;;1.33;;
23378;SDS011;11862;46.070;13.222;2022-10-26T06:26:37;3.47;;;1.30;;
23378;SDS011;11862;46.070;13.222;2022-10-26T06:29:15;3.03;;;1.88;;
23378;SDS011;11862;46.070;13.222;2022-10-26T06:31:53;4.05;;;1.60;;
23378;SDS011;11862;46.070;13.222;2022-10-26T06:34:21;2.85;;;1.45;;
23378;SDS011;11862;46.070;13.222;2022-10-26T06:36:54;2.03;;;1.10;;
23378;SDS011;11862;46.070;13.222;2022-10-26T06:39:23;2.92;;;1.65;;
23378;SDS011;11862;46.070;13.222;2022-10-26T06:41:58;5.40;;;1.45;;
23378;SDS011;11862;46.070;13.222;2022-10-26T06:44:25;5.03;;;1.65;;
23378;SDS011;11862;46.070;13.222;2022-10-26T06:46:56;2.08;;;1.20;;
23378;SDS011;11862;46.070;13.222;2022-10-26T06:52:31;5.05;;;1.38;;
23378;SDS011;11862;46.070;13.222;2022-10-26T06:55:01;1.17;;;1.00;;
23378;SDS011;11862;46.070;13.222;2022-10-26T06:57:32;4.30;;;1.83;;
23378;SDS011;11862;46.070;13.222;2022-10-26T07:00:12;3.35;;;1.48;;
23378;SDS011;11862;46.070;13.222;2022-10-26T07:05:22;4.20;;;1.80;;
23378;SDS011;11862;46.070;13.222;2022-10-26T07:07:58;3.15;;;1.63;;
23378;SDS011;11862;46.070;13.222;2022-10-26T07:10:24;6.65;;;2.15;;
23378;SDS011;11862;46.070;13.222;2022-10-26T07:12:59;4.28;;;1.40;;
23378;SDS011;11862;46.070;13.222;2022-10-26T07:15:28;7.75;;;2.13;;
23378;SDS011;11862;46.070;13.222;2022-10-26T07:17:56;4.38;;;1.90;;
23378;SDS011;11862;46.070;13.222;2022-10-26T07:20:23;4.57;;;1.80;;
23378;SDS011;11862;46.070;13.222;2022-10-26T07:22:55;14.65;;;3.92;;
23378;SDS011;11862;46.070;13.222;2022-10-26T07:25:25;10.25;;;2.67;;
23378;SDS011;11862;46.070;13.222;2022-10-26T07:27:55;9.05;;;2.60;;
23378;SDS011;11862;46.070;13.222;2022-10-26T07:30:23;64.78;;;15.00;;
23378;SDS011;11862;46.070;13.222;2022-10-26T07:32:57;17.80;;;5.00;;
23378;SDS011;11862;46.070;13.222;2022-10-26T07:35:25;25.98;;;6.47;;
23378;SDS011;11862;46.070;13.222;2022-10-26T07:37:55;16.35;;;4.47;;
23378;SDS011;11862;46.070;13.222;2022-10-26T07:40:26;21.08;;;6.15;;
23378;SDS011;11862;46.070;13.222;2022-10-26T07:42:57;15.13;;;4.43;;
23378;SDS011;11862;46.070;13.222;2022-10-26T07:45:30;15.30;;;4.32;;
23378;SDS011;11862;46.070;13.222;2022-10-26T07:47:57;19.15;;;4.53;;
23378;SDS011;11862;46.070;13.222;2022-10-26T07:50:33;12.75;;;4.00;;
23378;SDS011;11862;46.070;13.222;2022-10-26T07:53:09;18.88;;;4.10;;
23378;SDS011;11862;46.070;13.222;2022-10-26T07:55:37;10.30;;;3.20;;
23378;SDS011;11862;46.070;13.222;2022-10-26T07:58:04;9.95;;;3.38;;
23378;SDS011;11862;46.070;13.222;2022-10-26T08:00:37;12.32;;;3.17;;
23378;SDS011;11862;46.070;13.222;2022-10-26T08:03:12;9.93;;;3.15;;
23378;SDS011;11862;46.070;13.222;2022-10-26T08:05:51;9.38;;;3.15;;
23378;SDS011;11862;46.070;13.222;2022-10-26T08:08:36;5.53;;;2.10;;
23378;SDS011;11862;46.070;13.222;2022-10-26T08:11:03;11.05;;;3.45;;
23378;SDS011;11862;46.070;13.222;2022-10-26T08:13:37;10.55;;;3.47;;
23378;SDS011;11862;46.070;13.222;2022-10-26T08:16:08;4.78;;;2.40;;
23378;SDS011;11862;46.070;13.222;2022-10-26T08:21:14;10.30;;;2.75;;
23378;SDS011;11862;46.070;13.222;2022-10-26T08:23:48;7.17;;;2.37;;
23378;SDS011;11862;46.070;13.222;2022-10-26T08:26:15;5.10;;;2.65;;
23378;SDS011;11862;46.070;13.222;2022-10-26T08:28:47;7.25;;;2.63;;
23378;SDS011;11862;46.070;13.222;2022-10-26T08:31:14;7.90;;;2.40;;
23378;SDS011;11862;46.070;13.222;2022-10-26T08:33:46;7.47;;;3.03;;
23378;SDS011;11862;46.070;13.222;2022-10-26T08:36:14;12.27;;;3.38;;
23378;SDS011;11862;46.070;13.222;2022-10-26T08:38:48;8.90;;;3.15;;
23378;SDS011;11862;46.070;13.222;2022-10-26T08:41:20;6.20;;;2.28;;
23378;SDS011;11862;46.070;13.222;2022-10-26T08:44:10;5.07;;;2.55;;
23378;SDS011;11862;46.070;13.222;2022-10-26T08:46:50;6.47;;;2.55;;
23378;SDS011;11862;46.070;13.222;2022-10-26T08:49:34;7.65;;;2.38;;
23378;SDS011;11862;46.070;13.222;2022-10-26T08:52:25;7.90;;;3.05;;
23378;SDS011;11862;46.070;13.222;2022-10-26T08:55:04;6.95;;;2.10;;
23378;SDS011;11862;46.070;13.222;2022-10-26T08:57:48;3.60;;;2.30;;
23378;SDS011;11862;46.070;13.222;2022-10-26T09:00:27;8.55;;;2.60;;
23378;SDS011;11862;46.070;13.222;2022-10-26T09:05:56;6.53;;;2.25;;
23378;SDS011;11862;46.070;13.222;2022-10-26T09:08:59;9.05;;;2.92;;
23378;SDS011;11862;46.070;13.222;2022-10-26T09:17:05;5.63;;;2.20;;
23378;SDS011;11862;46.070;13.222;2022-10-26T09:22:32;6.10;;;2.83;;
23378;SDS011;11862;46.070;13.222;2022-10-26T09:25:18;11.90;;;3.58;;
23378;SDS011;11862;46.070;13.222;2022-10-26T09:27:51;9.63;;;3.70;;
23378;SDS011;11862;46.070;13.222;2022-10-26T09:30:24;10.90;;;4.72;;
23378;SDS011;11862;46.070;13.222;2022-10-26T09:32:52;10.75;;;4.50;;
23378;SDS011;11862;46.070;13.222;2022-10-26T09:38:22;14.02;;;5.95;;
23378;SDS011;11862;46.070;13.222;2022-10-26T09:41:55;10.25;;;5.72;;
23378;SDS011;11862;46.070;13.222;2022-10-26T09:44:23;10.38;;;5.57;;
23378;SDS011;11862;46.070;13.222;2022-10-26T09:46:58;7.75;;;4.72;;
23378;SDS011;11862;46.070;13.222;2022-10-26T09:49:31;14.32;;;6.25;;
23378;SDS011;11862;46.070;13.222;2022-10-26T09:52:23;11.98;;;5.65;;
23378;SDS011;11862;46.070;13.222;2022-10-26T09:54:49;16.02;;;5.45;;
23378;SDS011;11862;46.070;13.222;2022-10-26T09:57:19;11.20;;;5.32;;
23378;SDS011;11862;46.070;13.222;2022-10-26T09:59:46;11.73;;;5.38;;
23378;SDS011;11862;46.070;13.222;2022-10-26T10:08:17;8.43;;;4.65;;
23378;SDS011;11862;46.070;13.222;2022-10-26T10:11:01;10.38;;;4.93;;
23378;SDS011;11862;46.070;13.222;2022-10-26T10:13:30;12.05;;;5.00;;
23378;SDS011;11862;46.070;13.222;2022-10-26T10:18:31;9.18;;;4.55;;
23378;SDS011;11862;46.070;13.222;2022-10-26T10:20:58;7.65;;;4.40;;
23378;SDS011;11862;46.070;13.222;2022-10-26T10:23:35;10.07;;;5.93;;
23378;SDS011;11862;46.070;13.222;2022-10-26T10:26:12;7.85;;;4.95;;
23378;SDS011;11862;46.070;13.222;2022-10-26T10:28:40;11.38;;;5.30;;
23378;SDS011;11862;46.070;13.222;2022-10-26T10:31:20;11.90;;;4.93;;
23378;SDS011;11862;46.070;13.222;2022-10-26T10:33:52;15.32;;;5.57;;
23378;SDS011;11862;46.070;13.222;2022-10-26T10:36:20;10.48;;;5.90;;
23378;SDS011;11862;46.070;13.222;2022-10-26T10:38:49;13.98;;;5.90;;
23378;SDS011;11862;46.070;13.222;2022-10-26T10:41:29;18.35;;;6.80;;
23378;SDS011;11862;46.070;13.222;2022-10-26T10:47:04;15.05;;;6.35;;
23378;SDS011;11862;46.070;13.222;2022-10-26T10:49:31;13.85;;;6.13;;
23378;SDS011;11862;46.070;13.222;2022-10-26T10:51:58;10.40;;;6.05;;
23378;SDS011;11862;46.070;13.222;2022-10-26T10:54:28;14.50;;;6.57;;
23378;SDS011;11862;46.070;13.222;2022-10-26T10:57:22;13.38;;;7.80;;
23378;SDS011;11862;46.070;13.222;2022-10-26T11:04:04;14.18;;;8.02;;
23378;SDS011;11862;46.070;13.222;2022-10-26T11:06:47;17.10;;;7.43;;
23378;SDS011;11862;46.070;13.222;2022-10-26T11:09:17;20.92;;;7.40;;
23378;SDS011;11862;46.070;13.222;2022-10-26T11:11:53;12.13;;;6.55;;
23378;SDS011;11862;46.070;13.222;2022-10-26T11:14:22;14.25;;;7.25;;
23378;SDS011;11862;46.070;13.222;2022-10-26T11:17:13;13.75;;;7.55;;
23378;SDS011;11862;46.070;13.222;2022-10-26T11:22:28;10.43;;;7.05;;
23378;SDS011;11862;46.070;13.222;2022-10-26T11:25:04;15.07;;;7.18;;
23378;SDS011;11862;46.070;13.222;2022-10-26T11:27:45;15.88;;;8.10;;
23378;SDS011;11862;46.070;13.222;2022-10-26T11:30:27;13.25;;;7.28;;
23378;SDS011;11862;46.070;13.222;2022-10-26T11:32:59;15.38;;;7.22;;
23378;SDS011;11862;46.070;13.222;2022-10-26T11:38:25;14.98;;;7.05;;
23378;SDS011;11862;46.070;13.222;2022-10-26T11:46:36;16.38;;;7.38;;
23378;SDS011;11862;46.070;13.222;2022-10-26T11:52:10;14.35;;;7.43;;
23378;SDS011;11862;46.070;13.222;2022-10-26T11:54:52;15.32;;;7.40;;
23378;SDS011;11862;46.070;13.222;2022-10-26T11:59:53;11.38;;;6.38;;
23378;SDS011;11862;46.070;13.222;2022-10-26T12:02:28;10.77;;;6.55;;
23378;SDS011;11862;46.070;13.222;2022-10-26T12:05:15;8.02;;;6.05;;
23378;SDS011;11862;46.070;13.222;2022-10-26T12:07:52;15.70;;;6.72;;
23378;SDS011;11862;46.070;13.222;2022-10-26T12:10:26;11.30;;;6.38;;
23378;SDS011;11862;46.070;13.222;2022-10-26T12:13:29;21.58;;;10.20;;
23378;SDS011;11862;46.070;13.222;2022-10-26T12:15:55;18.65;;;10.00;;
23378;SDS011;11862;46.070;13.222;2022-10-26T12:18:33;22.67;;;10.02;;
23378;SDS011;11862;46.070;13.222;2022-10-26T12:21:30;14.05;;;8.20;;
23378;SDS011;11862;46.070;13.222;2022-10-26T12:24:01;13.05;;;7.68;;
23378;SDS011;11862;46.070;13.222;2022-10-26T12:26:58;17.67;;;8.73;;
23378;SDS011;11862;46.070;13.222;2022-10-26T12:29:32;13.25;;;9.07;;
23378;SDS011;11862;46.070;13.222;2022-10-26T12:34:58;18.42;;;8.68;;
23378;SDS011;11862;46.070;13.222;2022-10-26T12:37:44;18.13;;;9.18;;
23378;SDS011;11862;46.070;13.222;2022-10-26T12:42:56;16.00;;;8.43;;
23378;SDS011;11862;46.070;13.222;2022-10-26T12:45:22;14.50;;;9.02;;
23378;SDS011;11862;46.070;13.222;2022-10-26T12:50:22;17.40;;;8.25;;
23378;SDS011;11862;46.070;13.222;2022-10-26T12:52:52;10.32;;;7.70;;
23378;SDS011;11862;46.070;13.222;2022-10-26T12:55:49;13.93;;;8.13;;
23378;SDS011;11862;46.070;13.222;2022-10-26T13:07:17;11.38;;;7.57;;
23378;SDS011;11862;46.070;13.222;2022-10-26T13:09:55;13.88;;;8.50;;
23378;SDS011;11862;46.070;13.222;2022-10-26T13:12:26;15.98;;;8.18;;
23378;SDS011;11862;46.070;13.222;2022-10-26T13:15:04;14.85;;;7.25;;
23378;SDS011;11862;46.070;13.222;2022-10-26T13:23:46;14.77;;;8.10;;
23378;SDS011;11862;46.070;13.222;2022-10-26T13:26:16;11.70;;;7.15;;
23378;SDS011;11862;46.070;13.222;2022-10-26T13:28:52;9.02;;;6.82;;
23378;SDS011;11862;46.070;13.222;2022-10-26T13:34:23;12.68;;;7.57;;
23378;SDS011;11862;46.070;13.222;2022-10-26T13:36:58;11.57;;;7.78;;
23378;SDS011;11862;46.070;13.222;2022-10-26T13:39:34;16.15;;;8.55;;
23378;SDS011;11862;46.070;13.222;2022-10-26T13:42:04;16.13;;;8.02;;
23378;SDS011;11862;46.070;13.222;2022-10-26T13:44:42;12.27;;;8.43;;
23378;SDS011;11862;46.070;13.222;2022-10-26T13:50:18;11.13;;;7.65;;
23378;SDS011;11862;46.070;13.222;2022-10-26T13:53:15;11.27;;;8.13;;
23378;SDS011;11862;46.070;13.222;2022-10-26T13:55:52;10.40;;;6.75;;
23378;SDS011;11862;46.070;13.222;2022-10-26T13:58:43;14.45;;;6.78;;
23378;SDS011;11862;46.070;13.222;2022-10-26T14:01:16;12.68;;;7.68;;
23378;SDS011;11862;46.070;13.222;2022-10-26T14:03:48;11.43;;;7.50;;
23378;SDS011;11862;46.070;13.222;2022-10-26T14:06:29;13.43;;;7.47;;
23378;SDS011;11862;46.070;13.222;2022-10-26T14:08:59;13.80;;;7.15;;
23378;SDS011;11862;46.070;13.222;2022-10-26T14:11:32;11.23;;;7.13;;
23378;SDS011;11862;46.070;13.222;2022-10-26T14:14:01;9.50;;;6.63;;
23378;SDS011;11862;46.070;13.222;2022-10-26T14:16:29;11.73;;;7.32;;
23378;SDS011;11862;46.070;13.222;2022-10-26T14:18:58;14.90;;;7.75;;
23378;SDS011;11862;46.070;13.222;2022-10-26T14:21:24;11.07;;;7.18;;
23378;SDS011;11862;46.070;13.222;2022-10-26T14:23:52;13.80;;;7.85;;
23378;SDS011;11862;46.070;13.222;2022-10-26T14:26:23;13.60;;;7.85;;
23378;SDS011;11862;46.070;13.222;2022-10-26T14:28:54;18.35;;;7.57;;
23378;SDS011;11862;46.070;13.222;2022-10-26T14:31:27;11.43;;;8.23;;
23378;SDS011;11862;46.070;13.222;2022-10-26T14:33:56;13.75;;;8.05;;
23378;SDS011;11862;46.070;13.222;2022-10-26T14:36:45;13.25;;;7.75;;
23378;SDS011;11862;46.070;13.222;2022-10-26T14:39:29;11.70;;;7.03;;
23378;SDS011;11862;46.070;13.222;2022-10-26T14:42:00;12.23;;;8.27;;
23378;SDS011;11862;46.070;13.222;2022-10-26T14:44:32;11.07;;;7.07;;
23378;SDS011;11862;46.070;13.222;2022-10-26T14:47:01;12.20;;;7.53;;
23378;SDS011;11862;46.070;13.222;2022-10-26T14:49:28;11.18;;;7.95;;
23378;SDS011;11862;46.070;13.222;2022-10-26T14:51:58;10.57;;;8.07;;
23378;SDS011;11862;46.070;13.222;2022-10-26T14:54:29;17.13;;;7.35;;
23378;SDS011;11862;46.070;13.222;2022-10-26T14:56:57;13.68;;;6.88;;
23378;SDS011;11862;46.070;13.222;2022-10-26T14:59:32;12.10;;;6.80;;
23378;SDS011;11862;46.070;13.222;2022-10-26T15:02:10;12.43;;;7.97;;
23378;SDS011;11862;46.070;13.222;2022-10-26T15:05:00;11.00;;;7.15;;
23378;SDS011;11862;46.070;13.222;2022-10-26T15:07:35;13.68;;;7.22;;
23378;SDS011;11862;46.070;13.222;2022-10-26T15:10:02;14.45;;;8.40;;
23378;SDS011;11862;46.070;13.222;2022-10-26T15:14:59;15.40;;;7.65;;
23378;SDS011;11862;46.070;13.222;2022-10-26T15:17:38;14.18;;;7.50;;
23378;SDS011;11862;46.070;13.222;2022-10-26T15:20:11;12.10;;;7.30;;
23378;SDS011;11862;46.070;13.222;2022-10-26T15:22:53;12.73;;;7.07;;
23378;SDS011;11862;46.070;13.222;2022-10-26T15:25:22;12.48;;;7.97;;
23378;SDS011;11862;46.070;13.222;2022-10-26T15:27:51;10.45;;;6.82;;
23378;SDS011;11862;46.070;13.222;2022-10-26T15:32:45;11.13;;;7.53;;
23378;SDS011;11862;46.070;13.222;2022-10-26T15:37:39;13.00;;;8.20;;
23378;SDS011;11862;46.070;13.222;2022-10-26T15:40:06;10.90;;;7.47;;
23378;SDS011;11862;46.070;13.222;2022-10-26T15:42:36;13.23;;;7.85;;
23378;SDS011;11862;46.070;13.222;2022-10-26T15:45:04;10.88;;;7.43;;
23378;SDS011;11862;46.070;13.222;2022-10-26T15:47:44;14.43;;;7.97;;
23378;SDS011;11862;46.070;13.222;2022-10-26T15:50:29;15.70;;;9.00;;
23378;SDS011;11862;46.070;13.222;2022-10-26T15:52:57;14.27;;;8.15;;
23378;SDS011;11862;46.070;13.222;2022-10-26T15:55:25;14.23;;;7.95;;
23378;SDS011;11862;46.070;13.222;2022-10-26T15:57:52;12.70;;;7.75;;
23378;SDS011;11862;46.070;13.222;2022-10-26T16:00:21;9.93;;;6.95;;
23378;SDS011;11862;46.070;13.222;2022-10-26T16:02:50;12.93;;;8.02;;
23378;SDS011;11862;46.070;13.222;2022-10-26T16:05:16;15.93;;;8.57;;
23378;SDS011;11862;46.070;13.222;2022-10-26T16:07:43;14.20;;;8.05;;
23378;SDS011;11862;46.070;13.222;2022-10-26T16:10:16;13.57;;;8.80;;
23378;SDS011;11862;46.070;13.222;2022-10-26T16:12:49;13.77;;;8.82;;
23378;SDS011;11862;46.070;13.222;2022-10-26T16:15:17;14.50;;;8.05;;
23378;SDS011;11862;46.070;13.222;2022-10-26T16:17:45;16.83;;;8.80;;
23378;SDS011;11862;46.070;13.222;2022-10-26T16:20:15;14.40;;;8.38;;
23378;SDS011;11862;46.070;13.222;2022-10-26T16:22:51;12.88;;;9.15;;
23378;SDS011;11862;46.070;13.222;2022-10-26T16:25:20;15.15;;;9.27;;
23378;SDS011;11862;46.070;13.222;2022-10-26T16:27:48;11.80;;;8.38;;
23378;SDS011;11862;46.070;13.222;2022-10-26T16:30:15;11.55;;;8.63;;
23378;SDS011;11862;46.070;13.222;2022-10-26T16:32:41;18.15;;;9.60;;
23378;SDS011;11862;46.070;13.222;2022-10-26T16:35:08;14.25;;;9.70;;
23378;SDS011;11862;46.070;13.222;2022-10-26T16:37:35;15.10;;;9.57;;
23378;SDS011;11862;46.070;13.222;2022-10-26T16:40:00;15.90;;;10.20;;
23378;SDS011;11862;46.070;13.222;2022-10-26T16:42:26;15.15;;;9.82;;
23378;SDS011;11862;46.070;13.222;2022-10-26T16:44:55;16.45;;;9.68;;
23378;SDS011;11862;46.070;13.222;2022-10-26T16:47:21;14.77;;;8.35;;
23378;SDS011;11862;46.070;13.222;2022-10-26T16:49:50;15.07;;;11.13;;
23378;SDS011;11862;46.070;13.222;2022-10-26T16:52:16;14.30;;;10.45;;
23378;SDS011;11862;46.070;13.222;2022-10-26T16:54:41;15.95;;;10.60;;
23378;SDS011;11862;46.070;13.222;2022-10-26T16:57:07;14.88;;;9.32;;
23378;SDS011;11862;46.070;13.222;2022-10-26T16:59:33;13.70;;;10.13;;
23378;SDS011;11862;46.070;13.222;2022-10-26T17:01:59;11.88;;;8.95;;
23378;SDS011;11862;46.070;13.222;2022-10-26T17:04:25;15.77;;;10.43;;
23378;SDS011;11862;46.070;13.222;2022-10-26T17:06:51;13.27;;;9.23;;
23378;SDS011;11862;46.070;13.222;2022-10-26T17:09:16;14.00;;;9.48;;